Terminal Aerodrome Forecast
Issued by NWS

Home | Current Version | Previous Version | Text Only | Print | Product List | Glossary On
Versions: 1 2 3 4 5 6 7 8 9 10 11 12 13 14 15 16
000
FTUS44 KTSA 261100
TAFRVS
TAF
KRVS 261127Z 2612/2712 19006KT P6SM FEW250
     FM261600 20014G22KT P6SM FEW050 SCT250
     FM270100 19007KT P6SM SCT150=

USA.gov is the U.S. government's official web portal to all federal, state and local government web resources and services.